LEVT Airport Information

Runway Information
Runway 04 Length 11483 ft width 148 ft
Elevation 1651 ft Threshold 0 ft Heading 36
Runway 22 Length 11483 ft Width 148 ft
Elevation 1682 ft Threshold 0 ft Heading 216
Airport Frequencies
Type GND Name GND Frequency 121.8 MHZ
Type TWR Name TWR Frequency 118.45 MHZ
Airport Navaids
Type VOR-DME Name Vitoria Frequency 112900 KHZ
Type VOR-DME Name Vitoria Frequency 116600 KHZ
Airport Weather Information & NOTAM
ADDS - METARS form results

(2253 UTC 29 October 2020)
Data provider http://aviationweather.gov/metar/data/
 
METAR text: LEVT 292230Z VRB01KT 9000 NSC 06/05 Q1027
Conditions at: LEVT (VITORIA , ES) observed 2230 UTC 29 October 2020
Temperature: 6.0°C (43°F)
Dewpoint: 5.0°C (41°F) [RH = 93%]
Pressure (altimeter): 30.32 inches Hg (1027.0 mb)
Winds: variable direction winds at 1 MPH (1 knots; 0.5 m/s)
Visibility: 6 miles ( 9 km)
Ceiling: at least 12,000 feet AGL
Clouds: sky clear below 12,000 feet AGL
Weather: no significant weather observed at this time

METAR text: LEVT 292200Z 07002KT 8000 NSC 06/05 Q1027
Conditions at: LEVT (VITORIA , ES) observed 2200 UTC 29 October 2020
Temperature: 6.0°C (43°F)
Dewpoint: 5.0°C (41°F) [RH = 93%]
Pressure (altimeter): 30.32 inches Hg (1027.0 mb)
Winds: from the ENE (70 degrees) at 2 MPH (2 knots; 1.0 m/s)
Visibility: 5 miles ( 8 km)
Ceiling: at least 12,000 feet AGL
Clouds: sky clear below 12,000 feet AGL
Weather: no significant weather observed at this time

Forecast for: LEVT (VITORIA , ES)
Text: TAF LEVT 291700Z 2918/3018 VRB04KT 9999 SCT040 TX20/3015Z TN05/3006Z
Forecast period: 1800 UTC 29 October 2020 to 1800 UTC 30 October 2020
Forecast type: FROM: standard forecast or significant change
Winds: variable direction winds at 5 MPH (4 knots; 2.1 m/s)
Visibility: 6 or more miles (10+ km)
Ceiling: at least 12,000 feet AGL
Clouds: scattered clouds at 4000 feet AGL
Weather: no significant weather forecast for this period
Text: PROB40
Forecast period: 1000 to 1800 UTC 30 October 2020
Forecast type: TEMPORARY: The following changes expected for less than half the time period
Winds: from the SW (220 degrees) at 12 MPH (10 knots; 5.1 m/s)
Visibility: missing
Ceiling: unknown
Clouds: missing
Weather: no significant weather forecast for this period